Time;durP1;ratioP1;P1;durP2;ratioP2;P2;SDS_P1;SDS_P2;PMS_P1;PMS_P2;Temp;Humidity;BMP_temperature;BMP_pressure;BME280_temperature;BME280_humidity;BME280_pressure;Samples;Min_cycle;Max_cycle;Signal;HPM_P1;HPM_P2
2021/05/25 00:00:39;;;;;;;1.48;0.82;;;17.80;64.60;;;;;;10545008;28;20050;-57
2021/05/25 00:05:40;;;;;;;1.45;0.85;;;17.80;64.60;;;;;;10553449;28;20476;-56
2021/05/25 00:10:41;;;;;;;2.13;0.98;;;17.80;64.60;;;;;;10565874;28;20510;-56
2021/05/25 00:15:41;;;;;;;1.58;0.85;;;17.80;64.50;;;;;;10567977;28;20146;-56
2021/05/25 00:20:42;;;;;;;2.25;0.90;;;17.80;64.50;;;;;;10523149;28;20510;-56
2021/05/25 00:25:43;;;;;;;2.22;1.10;;;17.80;64.50;;;;;;10571422;28;20106;-56
2021/05/25 00:30:44;;;;;;;1.73;1.00;;;17.80;64.40;;;;;;10563792;28;20043;-56
2021/05/25 00:35:45;;;;;;;1.50;0.70;;;17.80;64.50;;;;;;10569837;28;20491;-57
2021/05/25 00:40:45;;;;;;;2.20;1.30;;;17.80;64.40;;;;;;10522237;28;20479;-56
2021/05/25 00:45:46;;;;;;;1.38;0.75;;;17.80;64.40;;;;;;10540398;28;20066;-57
2021/05/25 00:50:47;;;;;;;1.00;0.60;;;17.80;64.40;;;;;;10550928;28;20062;-56
2021/05/25 00:55:48;;;;;;;2.20;0.85;;;17.80;64.40;;;;;;10552799;28;20096;-57
2021/05/25 01:00:50;;;;;;;1.75;0.70;;;17.80;64.30;;;;;;10525691;28;20020;-56
2021/05/25 01:05:51;;;;;;;2.15;1.05;;;17.80;64.30;;;;;;10544831;28;20433;-56
2021/05/25 01:10:56;;;;;;;3.65;0.98;;;17.80;64.30;;;;;;10541624;28;20027;-56
2021/05/25 01:15:57;;;;;;;1.50;0.70;;;17.80;64.20;;;;;;10528433;28;20508;-57
2021/05/25 01:20:58;;;;;;;1.90;0.70;;;17.80;64.20;;;;;;10539343;28;20028;-56
2021/05/25 01:25:59;;;;;;;1.30;0.93;;;17.80;64.20;;;;;;10520780;28;20031;-57
2021/05/25 01:31:02;;;;;;;1.10;0.77;;;17.80;64.10;;;;;;10539199;28;20448;-56
2021/05/25 01:36:05;;;;;;;1.17;0.70;;;17.80;64.10;;;;;;10521003;28;20048;-56
2021/05/25 01:41:08;;;;;;;1.60;0.90;;;17.90;64.20;;;;;;10555755;28;20043;-56
2021/05/25 01:46:09;;;;;;;1.17;0.93;;;17.80;64.10;;;;;;10567946;28;20446;-56
2021/05/25 01:51:10;;;;;;;1.00;0.60;;;17.80;64.10;;;;;;10567957;28;20035;-57
2021/05/25 01:56:10;;;;;;;2.47;1.00;;;17.80;64.00;;;;;;10569229;28;20036;-56
2021/05/25 02:01:12;;;;;;;1.10;0.60;;;17.80;64.00;;;;;;10559680;28;20051;-56
2021/05/25 02:06:13;;;;;;;1.80;1.00;;;17.90;64.00;;;;;;10552870;28;20498;-56
2021/05/25 02:11:14;;;;;;;1.80;0.68;;;17.80;63.90;;;;;;10569649;28;20111;-55
2021/05/25 02:16:17;;;;;;;1.98;0.60;;;17.90;64.00;;;;;;10545230;28;20036;-54
2021/05/25 02:21:20;;;;;;;2.90;1.10;;;17.80;63.90;;;;;;10545931;28;20035;-56
2021/05/25 02:26:21;;;;;;;2.58;0.70;;;17.80;63.90;;;;;;10536553;28;20391;-56
2021/05/25 02:31:22;;;;;;;1.90;0.70;;;17.80;63.90;;;;;;10574487;28;20051;-56
2021/05/25 02:36:22;;;;;;;1.67;0.77;;;17.80;63.90;;;;;;10557761;28;20123;-56
2021/05/25 02:41:23;;;;;;;1.17;0.85;;;17.80;63.90;;;;;;10545284;28;20111;-56
2021/05/25 02:46:24;;;;;;;1.27;0.70;;;17.80;63.90;;;;;;10538445;28;20106;-56
2021/05/25 02:51:24;;;;;;;1.23;0.70;;;17.80;63.90;;;;;;10576035;28;20518;-56
2021/05/25 02:56:25;;;;;;;1.17;0.70;;;17.80;63.90;;;;;;10551286;28;20388;-56
2021/05/25 03:01:26;;;;;;;1.83;0.75;;;17.80;63.90;;;;;;10534291;28;20031;-56
2021/05/25 03:06:26;;;;;;;1.83;0.88;;;17.80;63.90;;;;;;10572344;28;20083;-56
2021/05/25 03:11:28;;;;;;;1.42;0.50;;;17.80;63.90;;;;;;10574730;28;20118;-56
2021/05/25 03:16:28;;;;;;;1.50;0.80;;;17.80;63.90;;;;;;10543521;28;20024;-57
2021/05/25 03:21:29;;;;;;;1.02;0.50;;;17.80;63.90;;;;;;10543348;28;20059;-55
2021/05/25 03:26:30;;;;;;;0.90;0.70;;;17.80;63.80;;;;;;10523768;28;20034;-55
2021/05/25 03:31:30;;;;;;;0.98;0.68;;;17.80;63.80;;;;;;10556165;28;20114;-56
2021/05/25 03:36:32;;;;;;;1.55;0.50;;;17.80;63.80;;;;;;10552609;28;20131;-56
2021/05/25 03:41:33;;;;;;;1.48;0.70;;;17.80;63.80;;;;;;10546291;28;20032;-56
2021/05/25 03:46:33;;;;;;;1.10;0.63;;;17.80;63.80;;;;;;10550767;28;20054;-56
2021/05/25 03:51:34;;;;;;;1.15;0.50;;;17.80;63.80;;;;;;10542542;28;20116;-56
2021/05/25 03:56:48;;;;;;;1.75;0.65;;;17.80;63.70;;;;;;10541819;28;20093;-56
2021/05/25 04:01:48;;;;;;;0.68;0.55;;;17.70;63.70;;;;;;10559692;28;20035;-56
2021/05/25 04:06:49;;;;;;;1.25;0.60;;;17.80;63.70;;;;;;10551412;28;20028;-55
2021/05/25 04:11:50;;;;;;;1.05;0.57;;;17.80;63.70;;;;;;10538089;28;20111;-56
2021/05/25 04:16:50;;;;;;;2.53;0.80;;;17.80;63.60;;;;;;10541235;28;20028;-56
2021/05/25 04:21:51;;;;;;;0.93;0.50;;;17.80;63.60;;;;;;10541236;28;20085;-56
2021/05/25 04:26:52;;;;;;;1.40;0.60;;;17.80;63.50;;;;;;10555703;28;20059;-56
2021/05/25 04:31:52;;;;;;;0.77;0.55;;;17.80;63.60;;;;;;10556871;28;20110;-55
2021/05/25 04:36:53;;;;;;;1.42;0.68;;;17.80;63.50;;;;;;10548223;28;20075;-56
2021/05/25 04:41:54;;;;;;;1.00;0.65;;;17.80;63.50;;;;;;10556236;28;20639;-57
2021/05/25 04:46:54;;;;;;;1.63;0.77;;;17.80;63.50;;;;;;10566525;28;20523;-56
2021/05/25 04:51:55;;;;;;;1.60;0.60;;;17.80;63.40;;;;;;10558109;28;20035;-56
2021/05/25 04:56:56;;;;;;;0.68;0.50;;;17.80;63.40;;;;;;10542490;28;20054;-56
2021/05/25 05:01:56;;;;;;;1.02;0.50;;;17.80;63.40;;;;;;10535309;28;20081;-56
2021/05/25 05:06:57;;;;;;;2.47;0.70;;;17.80;63.40;;;;;;10560551;28;20080;-59
2021/05/25 05:11:58;;;;;;;1.23;0.55;;;17.80;63.60;;;;;;10567821;28;20028;-56
2021/05/25 05:16:58;;;;;;;4.03;0.70;;;17.80;63.90;;;;;;10563392;28;20023;-58
2021/05/25 05:22:00;;;;;;;4.35;0.90;;;17.80;64.20;;;;;;10562030;28;20364;-57
2021/05/25 05:27:00;;;;;;;9.32;0.93;;;17.80;65.10;;;;;;10564061;28;20486;-57
2021/05/25 05:32:01;;;;;;;2.70;1.15;;;17.80;65.50;;;;;;10546946;28;20020;-56
2021/05/25 05:37:03;;;;;;;3.90;1.02;;;17.80;65.10;;;;;;10563033;28;20510;-57
2021/05/25 05:42:04;;;;;;;9.35;1.55;;;17.80;65.30;;;;;;10552753;28;20111;-55
2021/05/25 05:47:05;;;;;;;14.00;1.73;;;17.90;65.90;;;;;;10569376;28;20035;-57
2021/05/25 05:52:06;;;;;;;10.93;1.58;;;17.90;65.90;;;;;;10558276;28;20019;-57
2021/05/25 05:57:07;;;;;;;8.68;1.13;;;17.80;65.90;;;;;;10557283;28;20070;-56
2021/05/25 06:02:08;;;;;;;3.95;0.98;;;17.80;65.30;;;;;;10556087;28;20031;-56
2021/05/25 06:07:08;;;;;;;4.95;1.20;;;17.80;65.00;;;;;;10553453;28;20444;-57
2021/05/25 06:12:09;;;;;;;4.45;0.90;;;17.80;65.00;;;;;;10557698;28;20059;-57
2021/05/25 06:17:10;;;;;;;3.88;1.27;;;17.70;65.50;;;;;;10538332;28;20041;-56
2021/05/25 06:22:11;;;;;;;6.15;1.95;;;17.70;64.90;;;;;;10536268;28;20032;-57
2021/05/25 06:27:12;;;;;;;9.23;1.95;;;17.70;64.90;;;;;;10546160;28;20028;-56
2021/05/25 06:32:13;;;;;;;6.22;1.73;;;17.70;64.80;;;;;;10558952;28;20118;-55
2021/05/25 06:37:14;;;;;;;3.67;1.45;;;17.60;64.70;;;;;;10550978;28;20032;-56
2021/05/25 06:42:15;;;;;;;6.78;2.42;;;17.60;64.70;;;;;;10579951;28;20471;-55
2021/05/25 06:47:15;;;;;;;8.85;1.40;;;17.60;64.70;;;;;;10558994;28;20106;-56
2021/05/25 06:52:16;;;;;;;2.05;0.88;;;17.60;64.60;;;;;;10585391;28;20031;-55
2021/05/25 06:57:17;;;;;;;3.80;1.58;;;17.60;64.60;;;;;;10571054;28;20111;-54
2021/05/25 07:02:18;;;;;;;3.55;1.45;;;17.60;64.50;;;;;;10544071;28;20095;-54
2021/05/25 07:07:20;;;;;;;3.88;1.17;;;17.60;64.40;;;;;;10569174;28;20118;-54
2021/05/25 07:12:20;;;;;;;6.10;1.50;;;17.60;64.40;;;;;;10579597;28;20028;-55
2021/05/25 07:17:21;;;;;;;2.70;1.23;;;17.60;64.40;;;;;;10562493;28;20059;-55
2021/05/25 07:22:22;;;;;;;4.72;1.75;;;17.70;64.40;;;;;;10584844;28;20030;-54
2021/05/25 07:27:22;;;;;;;2.55;1.08;;;17.70;64.30;;;;;;10585189;28;20057;-56
2021/05/25 07:32:23;;;;;;;2.38;1.25;;;17.70;64.20;;;;;;10584491;28;20489;-54
2021/05/25 07:37:24;;;;;;;2.05;1.30;;;17.70;64.20;;;;;;10584714;28;20058;-56
2021/05/25 07:42:26;;;;;;;2.45;1.17;;;17.70;64.20;;;;;;10559781;28;20032;-55
2021/05/25 07:47:28;;;;;;;2.33;1.48;;;17.70;64.20;;;;;;10557982;28;20028;-55
2021/05/25 07:52:28;;;;;;;3.25;1.45;;;17.70;64.20;;;;;;10543270;28;20078;-56
2021/05/25 07:57:29;;;;;;;2.75;1.10;;;17.70;64.20;;;;;;10565484;28;20046;-55
2021/05/25 08:02:29;;;;;;;3.00;1.13;;;17.70;64.20;;;;;;10583371;28;20055;-56
2021/05/25 08:07:30;;;;;;;2.58;1.60;;;17.70;64.20;;;;;;10583545;28;20055;-55
2021/05/25 08:12:32;;;;;;;4.15;1.60;;;17.70;64.10;;;;;;10580031;28;20023;-56
2021/05/25 08:22:34;;;;;;;2.67;0.95;;;17.70;64.20;;;;;;10541613;28;20039;-55
2021/05/25 08:27:35;;;;;;;2.65;1.20;;;17.70;64.50;;;;;;10567044;28;20047;-57
2021/05/25 08:32:36;;;;;;;1.88;1.02;;;17.60;64.30;;;;;;10556313;28;20145;-56
2021/05/25 08:37:38;;;;;;;2.88;1.40;;;17.70;64.40;;;;;;10507819;28;20049;-56
2021/05/25 08:42:38;;;;;;;2.08;1.30;;;17.60;64.60;;;;;;10496689;28;20514;-56
2021/05/25 08:47:41;;;;;;;2.00;1.02;;;17.60;64.50;;;;;;10514006;28;20082;-54
2021/05/25 08:52:42;;;;;;;2.17;0.98;;;17.60;64.50;;;;;;10497488;28;20032;-56
2021/05/25 08:57:43;;;;;;;2.15;0.98;;;17.60;64.70;;;;;;10496912;28;20384;-56
2021/05/25 09:02:43;;;;;;;1.70;0.98;;;17.60;64.80;;;;;;10497320;28;20027;-56
2021/05/25 09:07:50;;;;;;;1.63;0.90;;;17.60;64.60;;;;;;10497182;28;20099;-56
2021/05/25 09:12:54;;;;;;;4.38;1.10;;;17.60;64.60;;;;;;10519009;28;20097;-56
2021/05/25 09:18:07;;;;;;;2.22;1.42;;;17.50;64.50;;;;;;10519764;28;20035;-56
2021/05/25 09:23:10;;;;;;;1.10;0.73;;;17.50;64.40;;;;;;10480049;28;20520;-55
2021/05/25 09:28:14;;;;;;;2.30;0.95;;;17.50;64.40;;;;;;10521396;28;20059;-56
2021/05/25 09:33:16;;;;;;;4.30;1.00;;;17.50;64.50;;;;;;10499291;28;20056;-55
2021/05/25 09:38:28;;;;;;;4.10;1.80;;;17.50;64.40;;;;;;10564400;28;20499;-55
2021/05/25 09:43:33;;;;;;;1.27;1.00;;;17.50;64.50;;;;;;10562444;28;20103;-56
2021/05/25 09:48:43;;;;;;;1.95;1.00;;;17.50;64.50;;;;;;10528679;28;20028;-56
2021/05/25 09:53:48;;;;;;;1.73;0.90;;;17.50;64.50;;;;;;10580490;28;20089;-56
2021/05/25 09:58:49;;;;;;;1.40;0.82;;;17.50;64.50;;;;;;10580301;28;20031;-56
2021/05/25 10:03:52;;;;;;;1.23;1.00;;;17.50;64.40;;;;;;10561938;28;20020;-55
2021/05/25 10:08:53;;;;;;;1.70;1.08;;;17.60;64.50;;;;;;10579010;28;20039;-54
2021/05/25 10:13:54;;;;;;;1.25;0.77;;;17.60;64.50;;;;;;10536979;28;20028;-56
2021/05/25 10:19:24;;;;;;;2.28;1.20;;;17.60;64.60;;;;;;10568924;28;20031;-56
2021/05/25 10:24:23;;;;;;;2.10;1.08;;;17.60;64.70;;;;;;10559785;28;20479;-56
2021/05/25 10:29:24;;;;;;;2.13;1.25;;;17.60;65.10;;;;;;10572423;28;20051;-56
2021/05/25 10:34:32;;;;;;;1.85;0.90;;;17.60;64.80;;;;;;10569438;28;20028;-55
2021/05/25 10:39:40;;;;;;;4.20;1.00;;;17.60;64.90;;;;;;10569169;28;20028;-55
2021/05/25 10:44:48;;;;;;;1.15;0.75;;;17.60;65.00;;;;;;10569035;28;20012;-56
2021/05/25 10:50:12;;;;;;;2.67;1.15;;;17.60;65.00;;;;;;10542312;28;20030;-55
2021/05/25 10:55:26;;;;;;;2.17;0.80;;;17.60;65.30;;;;;;10547421;28;20055;-56
2021/05/25 11:00:35;;;;;;;2.58;1.05;;;17.60;65.20;;;;;;10556120;28;20035;-50
2021/05/25 11:05:37;;;;;;;1.38;0.70;;;17.60;65.20;;;;;;10567179;28;20471;-54
2021/05/25 11:10:53;;;;;;;2.58;1.00;;;17.60;65.40;;;;;;10541820;28;20471;-56
2021/05/25 11:16:25;;;;;;;2.33;0.70;;;17.60;65.30;;;;;;10546047;28;20437;-55
2021/05/25 11:27:04;;;;;;;1.42;0.95;;;17.60;65.20;;;;;;10564330;28;20456;-56
2021/05/25 11:32:14;;;;;;;1.58;0.85;;;17.60;65.30;;;;;;10544547;28;20390;-57
2021/05/25 11:37:16;;;;;;;2.00;0.93;;;17.60;65.20;;;;;;10560834;28;20047;-55
2021/05/25 11:42:27;;;;;;;1.20;0.77;;;17.60;65.20;;;;;;10567054;28;20031;-56
2021/05/25 11:47:28;;;;;;;5.18;0.90;;;17.60;67.10;;;;;;10570626;28;20027;-53
2021/05/25 11:52:39;;;;;;;3.20;1.20;;;17.60;65.90;;;;;;10552402;28;20031;-56
2021/05/25 11:57:44;;;;;;;1.75;0.98;;;17.60;65.90;;;;;;10548043;28;20111;-56
2021/05/25 12:02:51;;;;;;;4.80;1.10;;;17.60;66.00;;;;;;10507129;28;20020;-55
2021/05/25 12:07:57;;;;;;;3.75;1.10;;;17.60;66.00;;;;;;10546791;28;20557;-56
2021/05/25 12:13:15;;;;;;;5.38;1.45;;;17.60;66.00;;;;;;10563357;28;20027;-56
2021/05/25 12:18:21;;;;;;;2.70;1.20;;;17.60;65.80;;;;;;10554658;28;20509;-57
2021/05/25 12:23:28;;;;;;;5.18;1.75;;;17.60;65.80;;;;;;10564170;28;20031;-57
2021/05/25 12:28:34;;;;;;;8.32;1.85;;;17.70;66.80;;;;;;10562060;28;20430;-57
2021/05/25 12:33:37;;;;;;;11.10;2.30;;;17.70;66.60;;;;;;10574263;28;20437;-56
2021/05/25 12:38:38;;;;;;;7.97;1.70;;;17.70;66.50;;;;;;10536661;28;20028;-58
2021/05/25 12:43:39;;;;;;;10.73;2.13;;;17.70;66.40;;;;;;10549472;28;20131;-58
2021/05/25 12:48:42;;;;;;;7.93;2.17;;;17.60;66.40;;;;;;10540480;28;20478;-58
2021/05/25 12:53:59;;;;;;;5.00;1.25;;;17.60;66.60;;;;;;10536924;28;20031;-58
2021/05/25 12:59:00;;;;;;;12.25;2.30;;;17.70;66.60;;;;;;10528911;28;20032;-57
2021/05/25 13:04:05;;;;;;;8.93;1.73;;;17.70;67.20;;;;;;10561232;28;20136;-55
2021/05/25 13:09:19;;;;;;;12.52;1.70;;;17.70;66.60;;;;;;10551974;28;20471;-52
2021/05/25 13:14:19;;;;;;;7.43;1.50;;;17.70;66.30;;;;;;10575940;28;20643;-57
2021/05/25 13:19:40;;;;;;;12.15;1.77;;;17.60;66.10;;;;;;10562487;28;20040;-57
2021/05/25 13:24:59;;;;;;;8.10;1.80;;;17.60;66.00;;;;;;10535844;28;20105;-58
2021/05/25 13:30:10;;;;;;;6.60;1.57;;;17.60;65.90;;;;;;10550952;28;20472;-57
2021/05/25 13:35:11;;;;;;;5.78;1.55;;;17.60;65.90;;;;;;10556865;28;20380;-57
2021/05/25 13:40:13;;;;;;;5.90;1.67;;;17.50;65.80;;;;;;10539946;28;20103;-53
2021/05/25 13:45:15;;;;;;;8.85;1.90;;;17.50;65.80;;;;;;10563635;28;20490;-57
2021/05/25 13:50:25;;;;;;;10.02;3.15;;;17.50;65.80;;;;;;10565353;28;20032;-57
2021/05/25 13:55:28;;;;;;;9.45;1.70;;;17.60;66.30;;;;;;10571227;28;20054;-58
2021/05/25 14:00:40;;;;;;;7.18;1.50;;;17.60;66.30;;;;;;10552001;28;20032;-57
2021/05/25 14:05:41;;;;;;;15.13;3.95;;;17.60;66.10;;;;;;10547357;28;20024;-56
2021/05/25 14:10:42;;;;;;;13.93;5.15;;;17.60;66.00;;;;;;10546479;28;20051;-55
2021/05/25 14:15:43;;;;;;;30.25;17.02;;;17.60;65.10;;;;;;10565577;28;20009;-56
2021/05/25 14:20:44;;;;;;;36.67;13.57;;;17.60;67.40;;;;;;10567904;28;20086;-57
2021/05/25 14:25:44;;;;;;;26.80;9.52;;;17.70;67.20;;;;;;10528017;28;20472;-56
2021/05/25 14:30:45;;;;;;;20.38;8.93;;;17.70;66.50;;;;;;10545795;28;20040;-56
2021/05/25 14:35:47;;;;;;;21.50;8.93;;;17.70;66.40;;;;;;10545560;28;20032;-57
2021/05/25 14:40:49;;;;;;;27.20;10.27;;;17.80;67.70;;;;;;10545126;28;20063;-54
2021/05/25 14:45:50;;;;;;;21.08;8.45;;;17.80;68.60;;;;;;10560139;28;20032;-56
2021/05/25 14:50:50;;;;;;;22.00;8.55;;;17.90;69.40;;;;;;10555624;28;20129;-58
2021/05/25 14:55:58;;;;;;;26.88;9.55;;;17.90;69.90;;;;;;10544809;28;20028;-57
2021/05/25 15:01:02;;;;;;;22.25;8.02;;;17.90;69.90;;;;;;10564829;28;20032;-58
2021/05/25 15:06:14;;;;;;;19.85;7.97;;;17.90;69.20;;;;;;10549997;28;20426;-58
2021/05/25 15:11:17;;;;;;;18.58;8.27;;;17.90;68.80;;;;;;10565841;28;20102;-57
2021/05/25 15:16:19;;;;;;;19.55;7.85;;;17.90;68.60;;;;;;10582186;28;20039;-58
2021/05/25 15:21:19;;;;;;;15.50;7.13;;;17.80;68.30;;;;;;10556594;28;20449;-58
2021/05/25 15:26:21;;;;;;;14.57;6.10;;;17.80;68.20;;;;;;10543707;28;20051;-58
2021/05/25 15:31:21;;;;;;;17.48;6.38;;;17.80;68.00;;;;;;10564357;28;20104;-57
2021/05/25 15:36:22;;;;;;;15.68;5.97;;;17.80;67.90;;;;;;10548538;28;20063;-57
2021/05/25 15:41:23;;;;;;;13.20;5.97;;;17.70;67.70;;;;;;10507494;28;20116;-58
2021/05/25 15:46:24;;;;;;;16.27;5.60;;;17.70;67.60;;;;;;10508031;28;20036;-58
2021/05/25 15:51:26;;;;;;;14.75;6.00;;;17.80;67.50;;;;;;10542326;28;20048;-58
2021/05/25 15:56:26;;;;;;;11.70;5.63;;;17.80;67.30;;;;;;10542206;28;20372;-57
2021/05/25 16:01:30;;;;;;;15.35;5.88;;;18.00;67.90;;;;;;10542006;28;20028;-56
2021/05/25 16:06:32;;;;;;;14.55;6.55;;;18.00;68.90;;;;;;10506716;28;20465;-56
2021/05/25 16:11:33;;;;;;;15.20;5.85;;;18.00;69.50;;;;;;10575380;28;20043;-57
2021/05/25 16:16:36;;;;;;;18.45;6.10;;;18.00;70.00;;;;;;10582528;28;20035;-56
2021/05/25 16:21:37;;;;;;;21.25;7.30;;;18.00;70.00;;;;;;10558795;28;20433;-55
2021/05/25 16:26:38;;;;;;;18.90;6.53;;;18.10;70.30;;;;;;10549858;28;20043;-54
2021/05/25 16:31:38;;;;;;;17.58;6.45;;;18.10;71.20;;;;;;10563960;28;20055;-57
2021/05/25 16:36:39;;;;;;;20.08;7.30;;;18.10;70.00;;;;;;10562085;28;20147;-58
2021/05/25 16:41:40;;;;;;;22.10;5.95;;;18.10;70.60;;;;;;10529424;28;20031;-57
2021/05/25 16:46:40;;;;;;;17.05;4.57;;;18.10;70.00;;;;;;10567482;28;20081;-57
2021/05/25 16:51:41;;;;;;;12.38;4.25;;;18.00;69.60;;;;;;10558025;28;20059;-57
2021/05/25 16:56:42;;;;;;;9.98;4.40;;;18.00;69.60;;;;;;10540521;28;20032;-57
2021/05/25 17:06:58;;;;;;;8.25;3.97;;;17.90;69.30;;;;;;10540044;28;20115;-57
2021/05/25 17:12:18;;;;;;;10.90;3.92;;;17.90;69.20;;;;;;10566618;28;20063;-57
2021/05/25 17:17:23;;;;;;;;;;;17.90;69.10;;;;;;10565359;28;20422;-57
2021/05/25 17:22:24;;;;;;;8.90;4.05;;;17.90;69.00;;;;;;10555098;28;19919;-57
2021/05/25 17:27:24;;;;;;;10.10;3.60;;;17.80;68.90;;;;;;10555497;28;20085;-52
2021/05/25 17:32:25;;;;;;;9.13;4.32;;;17.80;68.90;;;;;;10568567;28;20486;-58
2021/05/25 17:37:26;;;;;;;11.10;4.40;;;17.80;68.60;;;;;;10514717;28;20589;-55
2021/05/25 17:42:26;;;;;;;10.40;3.45;;;17.80;68.90;;;;;;10545634;28;20099;-57
2021/05/25 17:47:27;;;;;;;14.23;3.85;;;17.80;69.00;;;;;;10543315;28;20070;-57
2021/05/25 17:52:28;;;;;;;10.45;3.97;;;17.80;68.90;;;;;;10559154;28;20028;-57
2021/05/25 17:57:28;;;;;;;4.93;3.00;;;17.80;69.00;;;;;;10562968;28;20061;-57
2021/05/25 18:02:29;;;;;;;7.47;3.08;;;17.80;68.90;;;;;;10559391;28;20028;-57
2021/05/25 18:07:38;;;;;;;7.65;3.03;;;17.70;68.90;;;;;;10539499;28;20127;-57
2021/05/25 18:12:40;;;;;;;6.35;3.28;;;17.80;69.00;;;;;;10541855;28;20027;-57
2021/05/25 18:17:42;;;;;;;7.47;3.08;;;17.70;68.90;;;;;;10556750;28;20028;-56
2021/05/25 18:22:42;;;;;;;8.05;3.45;;;17.70;68.90;;;;;;10553805;28;20024;-56
2021/05/25 18:27:43;;;;;;;10.23;3.17;;;17.70;69.00;;;;;;10557680;28;20028;-57
2021/05/25 18:42:55;;;;;;;6.00;2.70;;;17.70;69.40;;;;;;10553493;28;20032;-56
2021/05/25 18:47:56;;;;;;;6.50;3.30;;;17.70;69.30;;;;;;10569057;28;20039;-57
2021/05/25 18:52:56;;;;;;;4.80;2.40;;;17.70;69.30;;;;;;10565933;28;20055;-56
2021/05/25 18:58:00;;;;;;;5.22;1.90;;;17.70;69.30;;;;;;10565613;28;20123;-56
2021/05/25 19:03:01;;;;;;;8.80;2.95;;;17.60;69.20;;;;;;10565972;28;20012;-56
2021/05/25 19:08:02;;;;;;;4.75;2.75;;;17.60;69.20;;;;;;10545722;28;20032;-56
2021/05/25 19:13:02;;;;;;;5.65;2.63;;;17.60;69.20;;;;;;10543685;28;20038;-57
2021/05/25 19:18:03;;;;;;;7.10;2.60;;;17.60;69.20;;;;;;10572474;28;20529;-57
2021/05/25 19:23:15;;;;;;;7.32;2.70;;;17.60;69.10;;;;;;10538196;28;20028;-57
2021/05/25 19:28:15;;;;;;;4.72;2.15;;;17.60;69.20;;;;;;10551675;28;20484;-56
2021/05/25 19:33:16;;;;;;;8.18;2.55;;;17.60;69.20;;;;;;10566661;28;20066;-57
2021/05/25 19:38:17;;;;;;;4.60;2.60;;;17.60;69.10;;;;;;10541546;28;20636;-57
2021/05/25 19:43:18;;;;;;;4.80;2.08;;;17.60;69.00;;;;;;10556222;28;20097;-57
2021/05/25 19:48:19;;;;;;;5.18;2.30;;;17.60;69.00;;;;;;10577834;28;20110;-57
2021/05/25 19:53:20;;;;;;;6.20;1.85;;;17.50;68.80;;;;;;10566140;28;20548;-58
2021/05/25 19:58:21;;;;;;;6.05;2.10;;;17.60;68.70;;;;;;10564802;28;20074;-57
2021/05/25 20:03:22;;;;;;;4.38;2.08;;;17.50;68.50;;;;;;10545301;28;20032;-57
2021/05/25 20:08:23;;;;;;;6.05;2.20;;;17.50;68.40;;;;;;10560904;28;20035;-56
2021/05/25 20:13:24;;;;;;;7.57;2.03;;;17.50;68.30;;;;;;10571643;28;20051;-57
2021/05/25 20:18:25;;;;;;;7.85;2.30;;;17.50;68.20;;;;;;10550249;28;20028;-57
2021/05/25 20:23:28;;;;;;;4.75;2.15;;;17.60;68.10;;;;;;10543780;28;20537;-57
2021/05/25 20:28:29;;;;;;;6.85;1.58;;;17.60;67.90;;;;;;10576648;28;20084;-58
2021/05/25 20:37:35;;;;;;;5.95;2.33;;;17.60;67.70;;;;;;10555664;28;20413;-57
2021/05/25 20:38:50;;;;;;;7.18;2.15;;;17.60;67.60;;;;;;10560082;28;20107;-57
2021/05/25 20:43:53;;;;;;;6.30;1.80;;;17.60;67.50;;;;;;10543028;28;20433;-57
2021/05/25 20:48:54;;;;;;;3.97;1.60;;;17.70;67.40;;;;;;10554784;28;20117;-57
2021/05/25 20:53:55;;;;;;;3.90;1.88;;;17.70;67.30;;;;;;10555526;28;20568;-57
2021/05/25 20:58:55;;;;;;;3.95;1.42;;;17.70;67.90;;;;;;10564170;28;20084;-57
2021/05/25 21:03:56;;;;;;;3.70;1.40;;;17.70;67.20;;;;;;10554296;28;20024;-57
2021/05/25 21:08:57;;;;;;;4.47;2.10;;;17.60;67.10;;;;;;10559210;28;20059;-57
2021/05/25 21:13:57;;;;;;;4.05;1.67;;;17.60;67.10;;;;;;10564892;28;20028;-56
2021/05/25 21:18:58;;;;;;;6.65;1.40;;;17.60;67.20;;;;;;10570638;28;20027;-57
2021/05/25 21:23:59;;;;;;;6.28;1.55;;;17.60;67.00;;;;;;10548892;28;20446;-57
2021/05/25 21:29:00;;;;;;;6.05;1.67;;;17.70;66.90;;;;;;10559790;28;20349;-57
2021/05/25 21:34:01;;;;;;;2.45;1.45;;;17.70;66.80;;;;;;10560271;28;20040;-57
2021/05/25 21:39:02;;;;;;;6.32;1.55;;;17.70;66.80;;;;;;10552447;28;20090;-57
2021/05/25 21:44:03;;;;;;;2.35;1.52;;;17.70;66.70;;;;;;10550383;28;20072;-57
2021/05/25 21:49:04;;;;;;;1.38;1.10;;;17.70;66.70;;;;;;10566086;28;20035;-56
2021/05/25 21:54:05;;;;;;;4.15;1.55;;;17.60;66.70;;;;;;10569297;28;20028;-57
2021/05/25 21:59:05;;;;;;;2.55;1.40;;;17.60;66.60;;;;;;10538406;28;20475;-57
2021/05/25 22:04:06;;;;;;;4.15;1.33;;;17.60;66.60;;;;;;10555125;28;20055;-56
2021/05/25 22:09:09;;;;;;;1.98;1.02;;;17.60;66.50;;;;;;10564951;28;20123;-57
2021/05/25 22:14:11;;;;;;;4.63;1.58;;;17.70;66.40;;;;;;10580011;28;20040;-57
2021/05/25 22:19:11;;;;;;;3.55;1.50;;;17.70;66.40;;;;;;10555944;28;20027;-57
2021/05/25 22:24:12;;;;;;;3.25;1.10;;;17.70;66.30;;;;;;10533682;28;20039;-56
2021/05/25 22:29:13;;;;;;;2.15;1.38;;;17.70;66.10;;;;;;10570676;28;20042;-57
2021/05/25 22:34:13;;;;;;;1.88;0.98;;;17.70;66.10;;;;;;10548700;28;20398;-57
2021/05/25 22:39:14;;;;;;;2.35;1.25;;;17.70;66.00;;;;;;10562455;28;20125;-57
2021/05/25 22:44:15;;;;;;;3.55;1.60;;;17.70;66.00;;;;;;10548996;28;20024;-57
2021/05/25 22:49:15;;;;;;;2.88;1.30;;;17.70;66.00;;;;;;10557802;28;20088;-57
2021/05/25 22:54:16;;;;;;;2.13;1.27;;;17.70;66.00;;;;;;10541414;28;20028;-57
2021/05/25 22:59:17;;;;;;;3.28;1.35;;;17.70;66.00;;;;;;10558930;28;20031;-57
2021/05/25 23:04:19;;;;;;;3.53;1.42;;;17.70;66.00;;;;;;10580065;28;20111;-57
2021/05/25 23:09:20;;;;;;;1.60;0.95;;;17.70;66.00;;;;;;10580319;28;20114;-57
2021/05/25 23:14:20;;;;;;;4.20;1.67;;;17.60;65.90;;;;;;10584718;28;20110;-57
2021/05/25 23:19:21;;;;;;;3.92;1.52;;;17.70;65.90;;;;;;10571935;28;20077;-57
2021/05/25 23:24:22;;;;;;;2.72;1.33;;;17.60;65.80;;;;;;10555576;28;20020;-57
2021/05/25 23:29:22;;;;;;;1.77;1.20;;;17.60;65.90;;;;;;10562228;28;20063;-57
2021/05/25 23:34:23;;;;;;;1.88;1.05;;;17.60;65.80;;;;;;10570706;28;20106;-56
2021/05/25 23:39:24;;;;;;;2.45;1.30;;;17.60;65.70;;;;;;10558919;28;20031;-57
2021/05/25 23:44:25;;;;;;;2.33;1.50;;;17.70;65.70;;;;;;10557056;28;20028;-57
2021/05/25 23:49:26;;;;;;;2.75;1.20;;;17.70;65.70;;;;;;10549214;28;20115;-57
2021/05/25 23:54:26;;;;;;;2.30;1.20;;;17.60;65.60;;;;;;10549651;28;20142;-57
2021/05/25 23:59:27;;;;;;;3.92;1.30;;;17.70;65.50;;;;;;10551113;28;20142;-57
